Time;durP1;ratioP1;P1;durP2;ratioP2;P2;SDS_P1;SDS_P2;PMS_P1;PMS_P2;Temp;Humidity;BMP_temperature;BMP_pressure;BME280_temperature;BME280_humidity;BME280_pressure;Samples;Min_cycle;Max_cycle;Signal;HPM_P1;HPM_P2
2023/03/18 00:01:54;;;;;;;3.63;1.75;;;11.90;81.20;;;;;;4909096;29;20048;-71
2023/03/18 00:04:20;;;;;;;3.72;1.45;;;12.00;80.30;;;;;;4925934;29;20040;-71
2023/03/18 00:06:46;;;;;;;5.55;1.60;;;12.10;79.30;;;;;;4926363;29;20103;-72
2023/03/18 00:09:12;;;;;;;4.25;0.98;;;12.30;78.30;;;;;;4926260;29;20040;-71
2023/03/18 00:11:39;;;;;;;3.60;1.30;;;12.40;77.80;;;;;;4926281;29;20016;-73
2023/03/18 00:14:07;;;;;;;4.97;1.40;;;12.50;77.70;;;;;;4924419;29;20215;-73
2023/03/18 00:16:34;;;;;;;3.10;1.20;;;12.50;77.80;;;;;;4926255;29;20032;-72
2023/03/18 00:19:01;;;;;;;3.72;1.23;;;12.50;77.80;;;;;;4909233;29;20032;-73
2023/03/18 00:21:28;;;;;;;4.40;1.35;;;12.40;78.50;;;;;;4935118;29;20024;-72
2023/03/18 00:23:55;;;;;;;4.57;1.98;;;12.30;79.70;;;;;;4926081;29;20024;-74
2023/03/18 00:26:23;;;;;;;5.05;2.67;;;12.10;81.90;;;;;;4908870;29;20322;-73
2023/03/18 00:28:49;;;;;;;9.07;3.50;;;11.90;83.30;;;;;;4925859;29;20039;-72
2023/03/18 00:31:15;;;;;;;5.35;2.55;;;11.80;84.50;;;;;;4925790;29;20091;-72
2023/03/18 00:33:44;;;;;;;8.30;3.67;;;11.70;84.60;;;;;;4908768;29;20373;-72
2023/03/18 00:36:13;;;;;;;7.00;3.20;;;11.50;85.20;;;;;;4925354;29;20059;-74
2023/03/18 00:38:41;;;;;;;6.30;2.58;;;11.40;85.20;;;;;;4925485;29;20028;-72
2023/03/18 00:41:10;;;;;;;6.05;1.70;;;11.40;84.40;;;;;;4925416;29;20218;-73
2023/03/18 00:43:44;;;;;;;5.18;1.58;;;11.30;83.00;;;;;;4925723;29;20036;-73
2023/03/18 00:46:40;;;;;;;3.45;1.10;;;11.50;80.00;;;;;;4925465;29;20310;-72
2023/03/18 00:49:06;;;;;;;5.03;1.10;;;11.90;78.70;;;;;;4920596;29;20055;-74
2023/03/18 00:51:35;;;;;;;4.70;1.33;;;12.10;77.90;;;;;;4925566;29;20016;-74
2023/03/18 00:54:06;;;;;;;3.70;1.38;;;12.20;77.40;;;;;;4908821;29;20365;-73
2023/03/18 00:56:32;;;;;;;3.63;1.02;;;12.20;77.10;;;;;;4924281;29;20036;-73
2023/03/18 00:58:59;;;;;;;3.78;0.90;;;12.30;76.80;;;;;;4908766;29;20032;-74
2023/03/18 06:02:47;;;;;;;5.40;2.60;;;7.80;99.50;;;;;;5274560;23;20281;-73
2023/03/18 06:05:17;;;;;;;6.45;2.50;;;7.80;99.70;;;;;;4956598;28;20293;-73
2023/03/18 06:07:44;;;;;;;6.85;2.78;;;7.80;99.50;;;;;;4945955;29;20062;-73
2023/03/18 06:10:11;;;;;;;4.90;2.42;;;7.90;99.60;;;;;;4966663;28;20039;-74
2023/03/18 06:12:37;;;;;;;5.85;2.67;;;7.90;99.60;;;;;;4965257;28;20242;-73
2023/03/18 06:15:07;;;;;;;7.07;2.53;;;7.90;99.40;;;;;;4965761;28;20031;-73
2023/03/18 06:17:33;;;;;;;5.57;2.72;;;7.90;99.30;;;;;;4949258;29;20062;-73
2023/03/18 06:19:59;;;;;;;5.57;2.90;;;7.90;99.40;;;;;;4966434;28;20086;-74
2023/03/18 06:22:25;;;;;;;6.78;2.97;;;7.90;99.50;;;;;;4966033;28;20050;-74
2023/03/18 06:24:51;;;;;;;9.50;3.30;;;7.90;99.60;;;;;;4965421;28;20331;-74
2023/03/18 06:27:18;;;;;;;5.95;2.80;;;7.90;99.50;;;;;;4965179;28;20023;-73
2023/03/18 06:29:50;;;;;;;6.05;3.00;;;7.90;99.60;;;;;;4949121;29;20173;-74
2023/03/18 06:32:17;;;;;;;9.43;3.13;;;8.00;99.70;;;;;;4949047;29;20030;-73
2023/03/18 06:34:44;;;;;;;5.45;2.80;;;8.00;99.70;;;;;;4965759;28;20034;-73
2023/03/18 06:37:10;;;;;;;7.50;2.88;;;8.00;99.80;;;;;;4948821;29;20189;-73
2023/03/18 06:39:37;;;;;;;7.22;3.33;;;8.00;99.70;;;;;;4948566;29;20031;-74
2023/03/18 06:42:06;;;;;;;8.35;3.30;;;8.10;99.50;;;;;;4965061;28;20098;-73
2023/03/18 06:44:42;;;;;;;6.38;2.97;;;8.20;99.40;;;;;;4964810;28;20030;-74
2023/03/18 06:47:20;;;;;;;7.65;2.80;;;8.30;99.10;;;;;;4949143;29;20038;-72
2023/03/18 06:49:51;;;;;;;6.03;3.40;;;8.30;98.90;;;;;;4949009;28;20024;-73
2023/03/18 06:52:22;;;;;;;6.38;2.92;;;8.30;98.70;;;;;;4948753;29;20032;-72
2023/03/18 06:54:50;;;;;;;7.50;3.30;;;8.40;98.70;;;;;;4948212;28;20038;-72
2023/03/18 06:57:17;;;;;;;7.68;3.38;;;8.40;98.60;;;;;;4964666;28;20313;-72
2023/03/18 06:59:44;;;;;;;6.95;3.05;;;8.50;98.50;;;;;;4965189;28;20297;-73
2023/03/18 07:02:10;;;;;;;7.00;3.17;;;8.60;98.20;;;;;;4944730;29;20055;-73
2023/03/18 07:04:36;;;;;;;7.13;2.78;;;8.60;98.40;;;;;;4945741;29;20258;-74
2023/03/18 07:07:03;;;;;;;7.25;2.90;;;8.70;98.00;;;;;;4944800;29;20036;-73
2023/03/18 07:09:30;;;;;;;9.90;3.38;;;8.70;97.90;;;;;;4960626;28;20066;-73
2023/03/18 07:11:57;;;;;;;6.43;2.90;;;8.80;97.70;;;;;;4961122;28;20309;-74
2023/03/18 07:14:24;;;;;;;6.43;3.00;;;9.00;97.50;;;;;;4961162;28;20083;-74
2023/03/18 07:16:50;;;;;;;9.57;3.03;;;9.10;97.20;;;;;;4944601;29;20118;-74
2023/03/18 07:19:17;;;;;;;9.05;3.15;;;9.30;96.80;;;;;;4960061;28;20090;-73
2023/03/18 07:21:44;;;;;;;6.57;3.05;;;9.50;96.40;;;;;;4960295;28;20036;-72
2023/03/18 07:24:11;;;;;;;6.00;3.00;;;9.60;95.90;;;;;;4946035;29;20063;-73
2023/03/18 07:26:37;;;;;;;6.75;3.00;;;9.70;95.50;;;;;;4945790;29;20028;-73
2023/03/18 07:29:04;;;;;;;6.28;2.50;;;9.90;95.00;;;;;;4960421;28;20087;-73
2023/03/18 07:31:30;;;;;;;5.70;2.65;;;10.10;94.60;;;;;;4960081;28;20062;-74
2023/03/18 07:33:56;;;;;;;5.97;2.90;;;10.20;94.30;;;;;;4945861;29;20061;-73
2023/03/18 07:36:23;;;;;;;8.00;2.88;;;10.40;93.80;;;;;;4944276;29;20035;-73
2023/03/18 07:38:48;;;;;;;4.75;2.47;;;10.60;93.30;;;;;;4945316;29;20047;-71
2023/03/18 07:41:14;;;;;;;6.65;2.78;;;10.70;93.00;;;;;;4945509;29;20035;-72
2023/03/18 07:43:40;;;;;;;6.88;3.15;;;10.90;92.60;;;;;;4945385;29;20035;-72
2023/03/18 07:46:06;;;;;;;8.73;2.70;;;11.00;92.20;;;;;;4945686;29;20102;-74
2023/03/18 07:48:33;;;;;;;11.77;3.10;;;11.20;91.80;;;;;;4944979;29;20036;-73
2023/03/18 07:50:59;;;;;;;8.00;2.85;;;11.30;91.50;;;;;;4945437;29;20071;-72
2023/03/18 07:53:26;;;;;;;9.55;2.75;;;11.50;90.80;;;;;;4942657;29;20099;-73
2023/03/18 07:55:53;;;;;;;9.75;2.70;;;11.50;90.70;;;;;;4933337;29;20054;-72
2023/03/18 07:58:18;;;;;;;6.25;2.75;;;11.60;90.40;;;;;;4942232;29;20054;-73
2023/03/18 08:00:44;;;;;;;7.35;2.78;;;11.70;90.30;;;;;;4944328;29;20034;-73
2023/03/18 08:03:11;;;;;;;6.88;2.53;;;11.80;90.40;;;;;;4960385;28;20051;-73
2023/03/18 08:05:37;;;;;;;7.88;2.67;;;11.90;90.30;;;;;;4963716;28;20035;-73
2023/03/18 08:08:04;;;;;;;5.43;2.50;;;12.00;90.00;;;;;;4964373;28;20043;-73
2023/03/18 08:10:30;;;;;;;5.22;2.63;;;12.20;89.70;;;;;;4964405;28;20035;-72
2023/03/18 08:12:56;;;;;;;6.45;2.58;;;12.20;89.60;;;;;;4964369;28;20043;-74
2023/03/18 08:15:22;;;;;;;7.03;2.80;;;12.40;89.20;;;;;;4964179;28;20162;-74
2023/03/18 08:17:49;;;;;;;5.90;2.65;;;12.50;89.00;;;;;;4963598;28;20043;-73
2023/03/18 08:20:15;;;;;;;5.65;2.58;;;12.60;88.60;;;;;;4963648;28;20047;-73
2023/03/18 08:22:41;;;;;;;5.55;2.65;;;12.70;87.80;;;;;;4963513;28;20099;-73
2023/03/18 08:25:07;;;;;;;5.60;2.70;;;12.80;86.70;;;;;;4963951;28;20031;-74
2023/03/18 08:27:33;;;;;;;8.63;2.92;;;12.80;86.60;;;;;;4963621;28;20296;-73
2023/03/18 08:29:59;;;;;;;5.88;2.55;;;12.90;86.50;;;;;;4963800;28;20031;-71
2023/03/18 08:32:24;;;;;;;5.38;2.50;;;13.00;86.70;;;;;;4963099;28;20147;-73
2023/03/18 08:34:51;;;;;;;6.53;3.13;;;13.20;86.00;;;;;;4963208;28;20169;-72
2023/03/18 08:37:18;;;;;;;8.73;3.03;;;13.30;85.40;;;;;;4963523;28;20043;-73
2023/03/18 08:39:44;;;;;;;5.57;2.50;;;13.50;85.40;;;;;;4963008;28;20086;-73
2023/03/18 08:42:10;;;;;;;7.28;2.88;;;13.60;85.00;;;;;;4963773;28;20102;-74
2023/03/18 08:44:36;;;;;;;9.77;2.85;;;13.80;84.50;;;;;;4963226;28;20228;-73
2023/03/18 08:47:01;;;;;;;7.35;2.97;;;13.90;83.40;;;;;;4963670;28;20042;-74
2023/03/18 08:49:27;;;;;;;5.25;2.47;;;14.00;83.60;;;;;;4963747;28;20047;-75
2023/03/18 08:51:53;;;;;;;7.05;2.70;;;14.20;83.20;;;;;;4963089;28;20047;-73
2023/03/18 08:54:20;;;;;;;10.15;3.05;;;14.20;81.80;;;;;;4963644;28;20046;-75
2023/03/18 08:56:46;;;;;;;6.68;2.75;;;14.30;81.80;;;;;;4963110;28;20039;-71
2023/03/18 08:59:12;;;;;;;8.30;2.80;;;14.40;81.50;;;;;;4963433;28;20058;-77
2023/03/18 09:01:38;;;;;;;8.07;2.88;;;14.50;81.20;;;;;;4962605;28;20050;-73
2023/03/18 09:04:04;;;;;;;5.93;2.47;;;14.50;81.20;;;;;;4962657;28;20035;-75
2023/03/18 09:06:31;;;;;;;7.60;3.20;;;14.60;81.00;;;;;;4963506;28;20051;-72
2023/03/18 09:08:57;;;;;;;5.80;3.08;;;14.60;81.00;;;;;;4962835;28;20070;-72
2023/03/18 09:11:23;;;;;;;7.57;2.40;;;14.70;80.90;;;;;;4963466;28;20075;-72
2023/03/18 09:13:49;;;;;;;8.38;3.00;;;14.90;80.20;;;;;;4961882;28;20058;-72
2023/03/18 09:16:16;;;;;;;6.25;2.47;;;15.00;79.50;;;;;;4963437;28;20023;-73
2023/03/18 09:18:41;;;;;;;6.55;2.55;;;15.10;79.00;;;;;;4962828;28;20038;-72
2023/03/18 09:21:07;;;;;;;7.38;2.03;;;15.10;78.50;;;;;;4963247;28;20035;-74
2023/03/18 09:23:33;;;;;;;4.68;2.05;;;15.10;78.40;;;;;;4963125;28;20042;-71
2023/03/18 09:26:01;;;;;;;4.78;1.90;;;15.20;78.10;;;;;;4963073;28;20043;-72
2023/03/18 09:28:26;;;;;;;4.45;1.88;;;15.30;78.00;;;;;;4963731;28;20050;-73
2023/03/18 09:30:52;;;;;;;4.65;2.05;;;15.40;77.70;;;;;;4962985;28;20039;-72
2023/03/18 09:33:19;;;;;;;4.88;1.98;;;15.60;77.50;;;;;;4963281;28;20039;-71
2023/03/18 09:35:45;;;;;;;4.78;1.58;;;15.60;76.50;;;;;;4962549;28;20038;-74
2023/03/18 09:38:16;;;;;;;5.97;1.95;;;15.80;75.80;;;;;;4963600;28;20039;-75
2023/03/18 09:40:56;;;;;;;4.22;1.73;;;15.80;76.20;;;;;;4962808;28;20066;-72
2023/03/18 09:44:07;;;;;;;3.97;1.77;;;15.80;75.10;;;;;;4964324;28;20217;-74
2023/03/18 09:47:10;;;;;;;4.60;1.60;;;15.80;75.90;;;;;;4966838;28;20035;-76
2023/03/18 09:49:53;;;;;;;5.13;1.50;;;16.10;76.10;;;;;;4949805;29;20212;-75
2023/03/18 09:52:36;;;;;;;6.80;1.60;;;16.20;74.30;;;;;;4967239;28;20126;-75
2023/03/18 09:55:13;;;;;;;3.55;1.63;;;16.40;73.80;;;;;;4966366;28;20027;-75
2023/03/18 09:57:42;;;;;;;3.97;1.50;;;16.50;73.30;;;;;;4967577;28;20039;-74
2023/03/18 10:00:19;;;;;;;;;;;16.70;72.30;;;;;;4967080;28;20046;-75
2023/03/18 10:03:26;;;;;;;5.13;1.35;;;16.80;72.80;;;;;;4965887;28;19954;-74
2023/03/18 10:06:01;;;;;;;3.95;1.40;;;17.10;72.30;;;;;;4964909;28;20027;-75
2023/03/18 10:08:48;;;;;;;5.47;1.55;;;17.20;72.00;;;;;;4966389;28;20050;-75
2023/03/18 10:11:23;;;;;;;5.68;1.52;;;17.40;70.50;;;;;;4966533;28;20027;-79
2023/03/18 10:14:13;;;;;;;5.75;1.58;;;17.50;70.60;;;;;;4966348;29;20045;-74
2023/03/18 10:16:54;;;;;;;4.47;1.40;;;17.60;69.30;;;;;;4951068;29;20236;-74
2023/03/18 10:19:21;;;;;;;4.05;1.38;;;17.60;70.10;;;;;;4966421;28;20091;-72
2023/03/18 10:22:13;;;;;;;3.75;1.50;;;17.80;69.90;;;;;;4965821;28;20059;-74
2023/03/18 10:25:06;;;;;;;3.58;1.33;;;17.80;68.30;;;;;;4965545;28;20035;-76
2023/03/18 10:27:50;;;;;;;4.53;1.92;;;17.80;68.70;;;;;;4946601;29;20051;-75
2023/03/18 10:30:42;;;;;;;2.08;0.85;;;17.90;68.00;;;;;;4966137;28;20190;-74
2023/03/18 10:33:22;;;;;;;5.82;1.30;;;18.00;68.20;;;;;;4965859;28;20287;-74
2023/03/18 10:36:16;;;;;;;4.60;1.38;;;18.10;67.60;;;;;;4964411;28;20039;-74
2023/03/18 10:38:46;;;;;;;4.07;1.00;;;18.30;67.10;;;;;;4956274;28;20073;-76
2023/03/18 10:41:33;;;;;;;2.63;1.15;;;18.40;67.70;;;;;;4960314;28;20027;-76
2023/03/18 10:44:03;;;;;;;3.45;1.10;;;18.50;66.90;;;;;;4957258;28;20144;-74
2023/03/18 10:46:30;;;;;;;5.28;1.25;;;18.70;66.80;;;;;;4954455;28;20087;-76
2023/03/18 10:49:22;;;;;;;3.95;1.10;;;18.90;66.20;;;;;;4956137;28;20335;-76
2023/03/18 10:52:17;;;;;;;2.55;1.00;;;18.90;65.70;;;;;;4965254;28;20036;-74
2023/03/18 10:54:51;;;;;;;3.38;0.90;;;19.10;65.10;;;;;;4965333;28;20097;-74
2023/03/18 10:57:18;;;;;;;3.33;0.80;;;19.30;63.10;;;;;;4964333;28;20043;-76
2023/03/18 10:59:44;;;;;;;4.40;0.93;;;19.30;62.70;;;;;;4963758;28;20301;-76
2023/03/18 11:02:25;;;;;;;3.08;0.80;;;19.40;62.80;;;;;;4964381;29;20050;-76
2023/03/18 11:05:06;;;;;;;6.07;1.60;;;19.30;62.50;;;;;;4965025;28;20173;-76
2023/03/18 11:07:32;;;;;;;4.15;1.02;;;19.40;62.30;;;;;;4965575;28;20059;-74
2023/03/18 11:10:20;;;;;;;3.35;1.05;;;19.20;62.50;;;;;;4964718;28;20206;-75
2023/03/18 11:12:46;;;;;;;5.20;1.00;;;19.30;63.70;;;;;;4964629;28;20039;-75
2023/03/18 11:15:13;;;;;;;5.60;0.80;;;19.50;62.40;;;;;;4964954;28;20204;-72
2023/03/18 11:17:39;;;;;;;3.67;0.90;;;20.00;61.70;;;;;;4965068;28;20287;-74
2023/03/18 11:20:36;;;;;;;2.55;1.00;;;20.50;60.50;;;;;;4964816;28;20047;-73
2023/03/18 11:23:11;;;;;;;3.25;0.80;;;21.30;59.60;;;;;;4964284;28;20124;-75
2023/03/18 11:25:37;;;;;;;2.80;1.02;;;22.10;58.50;;;;;;4964990;28;20098;-74
2023/03/18 11:28:06;;;;;;;3.42;0.90;;;22.40;57.30;;;;;;4964337;28;20023;-74
2023/03/18 11:30:45;;;;;;;3.35;1.00;;;22.80;56.00;;;;;;4963651;28;20309;-75
2023/03/18 11:33:11;;;;;;;3.30;1.08;;;23.40;55.60;;;;;;4962220;28;20372;-74
2023/03/18 11:35:53;;;;;;;3.03;0.70;;;23.80;54.50;;;;;;4964373;28;20023;-75
2023/03/18 11:38:27;;;;;;;4.22;0.80;;;24.80;53.90;;;;;;4958866;28;20035;-74
2023/03/18 11:41:15;;;;;;;2.95;0.50;;;25.10;51.80;;;;;;4964275;28;20042;-77
2023/03/18 11:43:55;;;;;;;2.58;0.68;;;24.80;51.30;;;;;;4955587;28;20197;-73
2023/03/18 11:46:24;;;;;;;2.58;0.40;;;24.90;49.70;;;;;;4964897;28;20027;-74
2023/03/18 11:48:49;;;;;;;3.38;0.65;;;25.10;50.10;;;;;;4964552;28;20023;-77
2023/03/18 11:51:34;;;;;;;2.50;0.65;;;25.10;49.00;;;;;;4964579;28;20031;-76
2023/03/18 11:54:37;;;;;;;2.13;0.60;;;26.60;51.10;;;;;;4963957;28;20058;-74
2023/03/18 11:57:14;;;;;;;3.47;0.50;;;27.40;47.80;;;;;;4963988;28;20085;-76
2023/03/18 11:59:43;;;;;;;2.53;0.85;;;28.10;46.30;;;;;;4964542;28;20058;-75
2023/03/18 12:02:52;;;;;;;2.15;0.60;;;28.10;46.60;;;;;;4963244;28;20301;-73
2023/03/18 12:05:21;;;;;;;3.55;0.70;;;27.40;46.50;;;;;;4963810;28;20027;-73
2023/03/18 12:07:59;;;;;;;1.33;0.45;;;27.90;46.60;;;;;;4962507;28;20039;-73
2023/03/18 12:10:56;;;;;;;3.42;0.50;;;27.60;46.50;;;;;;4964217;28;20027;-74
2023/03/18 12:13:32;;;;;;;3.10;0.68;;;28.50;45.30;;;;;;4964477;28;20023;-74
2023/03/18 12:16:13;;;;;;;1.73;0.50;;;27.90;44.20;;;;;;4963283;28;20221;-74
2023/03/18 12:19:01;;;;;;;1.73;0.50;;;26.90;44.70;;;;;;4964527;28;20333;-74
2023/03/18 12:21:45;;;;;;;3.80;0.68;;;27.80;44.80;;;;;;4961619;28;20047;-74
2023/03/18 12:24:27;;;;;;;2.80;0.60;;;28.50;44.40;;;;;;4953521;28;20035;-74
2023/03/18 12:27:09;;;;;;;4.32;0.68;;;28.80;45.00;;;;;;4963600;28;20026;-74
2023/03/18 12:29:41;;;;;;;3.33;0.70;;;29.60;43.70;;;;;;4963839;28;20034;-74
2023/03/18 12:32:30;;;;;;;2.50;0.60;;;30.40;43.70;;;;;;4963652;28;20043;-74
2023/03/18 12:35:14;;;;;;;2.70;0.50;;;29.70;43.70;;;;;;4963306;28;20344;-74
2023/03/18 12:38:12;;;;;;;2.58;1.05;;;29.80;43.60;;;;;;4955694;28;20043;-74
2023/03/18 12:40:50;;;;;;;2.95;0.45;;;28.80;43.90;;;;;;4963533;28;20216;-73
2023/03/18 12:43:42;;;;;;;2.65;0.70;;;29.70;44.00;;;;;;4963875;28;20075;-74
2023/03/18 12:46:31;;;;;;;2.10;0.70;;;30.50;44.10;;;;;;4963237;28;20043;-74
2023/03/18 12:49:04;;;;;;;1.83;0.40;;;32.00;44.30;;;;;;4972001;28;20054;-74
2023/03/18 12:51:47;;;;;;;2.08;0.63;;;31.50;42.50;;;;;;4951794;28;20047;-74
2023/03/18 12:54:22;;;;;;;4.22;0.70;;;31.00;41.70;;;;;;4944494;29;20356;-74
2023/03/18 12:56:53;;;;;;;2.38;0.65;;;30.80;41.70;;;;;;4955082;28;20105;-75
2023/03/18 12:59:40;;;;;;;2.97;0.77;;;30.60;41.70;;;;;;4962537;28;20058;-73
2023/03/18 13:02:19;;;;;;;1.35;0.50;;;31.50;42.50;;;;;;4963052;28;20055;-74
2023/03/18 13:04:54;;;;;;;2.42;0.70;;;31.30;42.70;;;;;;4963692;28;20031;-75
2023/03/18 13:07:41;;;;;;;3.00;0.80;;;30.90;41.30;;;;;;4963820;28;20027;-75
2023/03/18 13:10:22;;;;;;;;;;;31.30;40.60;;;;;;4963259;28;20273;-74
2023/03/18 13:12:55;;;;;;;3.08;0.85;;;31.60;41.00;;;;;;4963768;28;19907;-74
2023/03/18 13:15:32;;;;;;;2.63;0.60;;;31.20;41.00;;;;;;4963340;28;20124;-73
2023/03/18 13:18:42;;;;;;;2.88;0.60;;;31.60;41.20;;;;;;4965391;28;20039;-76
2023/03/18 13:21:18;;;;;;;2.10;0.50;;;32.20;40.10;;;;;;4959485;28;20102;-75
2023/03/18 13:23:59;;;;;;;1.98;0.70;;;32.50;42.70;;;;;;4967577;28;20364;-75
2023/03/18 13:26:37;;;;;;;2.33;0.52;;;33.70;40.30;;;;;;4967370;28;20221;-74
2023/03/18 13:29:21;;;;;;;4.53;0.68;;;34.00;39.20;;;;;;4967086;28;20039;-74
2023/03/18 13:31:53;;;;;;;2.92;1.00;;;33.20;40.40;;;;;;4978608;28;20034;-76
2023/03/18 13:35:00;;;;;;;2.60;0.70;;;31.90;39.40;;;;;;4949329;28;20042;-75
2023/03/18 13:38:08;;;;;;;2.13;0.63;;;31.20;39.20;;;;;;4966729;28;20209;-74
2023/03/18 13:40:40;;;;;;;;;;;31.00;40.70;;;;;;4950455;28;20058;-74
2023/03/18 13:43:13;;;;;;;2.45;0.70;;;31.50;40.30;;;;;;4966746;28;19918;-74
2023/03/18 13:45:45;;;;;;;3.05;0.60;;;29.80;39.70;;;;;;4967453;28;20255;-73
2023/03/18 13:48:17;;;;;;;1.60;0.52;;;28.20;40.70;;;;;;4966430;28;20054;-73
2023/03/18 13:50:45;;;;;;;2.25;0.57;;;27.60;41.00;;;;;;4970292;28;20102;-72
2023/03/18 13:53:19;;;;;;;;;;;27.10;41.70;;;;;;4968432;28;20317;-72
2023/03/18 13:55:52;;;;;;;2.45;0.60;;;26.10;41.50;;;;;;4962872;28;19911;-72
2023/03/18 13:58:28;;;;;;;1.95;0.52;;;25.80;41.20;;;;;;4966887;28;20036;-75
2023/03/18 14:01:16;;;;;;;1.67;0.50;;;25.50;41.90;;;;;;4966376;28;20042;-73
2023/03/18 14:03:41;;;;;;;1.42;0.50;;;25.20;42.40;;;;;;4978848;28;20042;-74
2023/03/18 14:06:07;;;;;;;1.63;0.40;;;25.90;41.90;;;;;;4946027;28;20205;-74
2023/03/18 14:08:37;;;;;;;1.63;0.40;;;26.50;41.30;;;;;;4946152;29;20071;-73
2023/03/18 14:11:27;;;;;;;3.75;0.63;;;27.60;41.20;;;;;;4947007;29;20027;-73
2023/03/18 14:13:59;;;;;;;3.03;0.80;;;28.50;40.60;;;;;;4946793;29;20114;-74
2023/03/18 14:16:36;;;;;;;1.67;0.60;;;28.40;42.50;;;;;;4947039;29;20146;-75
2023/03/18 14:19:20;;;;;;;1.90;0.60;;;28.40;40.70;;;;;;4946674;29;20054;-75
2023/03/18 14:22:19;;;;;;;2.63;0.80;;;28.30;40.20;;;;;;4947138;29;20035;-72
2023/03/18 14:25:04;;;;;;;1.73;0.50;;;27.70;40.00;;;;;;4955990;28;20098;-73
2023/03/18 14:27:30;;;;;;;2.13;0.40;;;27.20;41.10;;;;;;4965993;28;20249;-74
2023/03/18 14:30:28;;;;;;;3.20;0.65;;;26.90;41.00;;;;;;4965326;28;20035;-74
2023/03/18 14:33:05;;;;;;;2.40;0.50;;;26.10;41.50;;;;;;4972711;28;20027;-73
2023/03/18 14:35:53;;;;;;;2.80;0.90;;;25.50;42.80;;;;;;4960029;28;20034;-73
2023/03/18 14:38:23;;;;;;;2.83;1.00;;;25.10;44.90;;;;;;4966326;28;20042;-72
2023/03/18 14:40:55;;;;;;;4.57;0.82;;;25.60;42.90;;;;;;4965987;28;20057;-73
2023/03/18 14:43:36;;;;;;;3.58;1.00;;;25.40;42.10;;;;;;4966143;28;20313;-74
2023/03/18 14:46:07;;;;;;;3.38;0.80;;;26.00;44.10;;;;;;4965704;28;20046;-72
2023/03/18 14:48:34;;;;;;;1.95;0.52;;;26.10;41.40;;;;;;4978166;28;20031;-73
2023/03/18 14:51:16;;;;;;;1.85;0.52;;;26.10;41.50;;;;;;4947984;28;20079;-74
2023/03/18 14:53:57;;;;;;;3.03;0.80;;;26.60;41.80;;;;;;4959877;29;20140;-73
2023/03/18 14:56:27;;;;;;;1.58;0.60;;;27.40;41.70;;;;;;4965594;28;20035;-72
2023/03/18 14:58:55;;;;;;;2.97;0.55;;;27.10;40.80;;;;;;4948332;28;20309;-73
2023/03/18 15:01:38;;;;;;;3.00;1.07;;;26.80;42.30;;;;;;4965134;28;20316;-73
2023/03/18 15:04:06;;;;;;;4.03;0.85;;;26.40;41.30;;;;;;4965061;28;20490;-73
2023/03/18 15:06:38;;;;;;;1.73;0.60;;;25.30;41.80;;;;;;4965737;28;20031;-74
2023/03/18 15:09:08;;;;;;;5.57;0.93;;;25.20;42.40;;;;;;4964732;28;20039;-74
2023/03/18 15:11:40;;;;;;;2.95;0.80;;;24.70;43.40;;;;;;4965361;28;20110;-73
2023/03/18 15:14:18;;;;;;;1.88;0.60;;;24.40;42.90;;;;;;4963914;28;20267;-73
2023/03/18 15:16:58;;;;;;;2.83;0.90;;;24.10;45.10;;;;;;4965759;28;20051;-73
2023/03/18 15:19:26;;;;;;;2.08;0.57;;;24.00;44.20;;;;;;4965252;28;20053;-74
2023/03/18 15:21:52;;;;;;;2.53;0.70;;;23.40;43.80;;;;;;4965295;29;20042;-74
2023/03/18 15:24:22;;;;;;;2.25;0.60;;;22.70;44.60;;;;;;4964921;28;20090;-73
2023/03/18 15:27:17;;;;;;;2.58;0.60;;;22.50;45.30;;;;;;4964960;28;20047;-72
2023/03/18 15:29:56;;;;;;;2.63;0.65;;;22.00;44.50;;;;;;4971617;28;20069;-71
2023/03/18 15:32:42;;;;;;;2.83;1.10;;;21.90;45.30;;;;;;4952128;28;20050;-73
2023/03/18 15:35:25;;;;;;;2.58;1.10;;;22.10;49.90;;;;;;4955855;28;20043;-73
2023/03/18 15:38:11;;;;;;;3.30;0.80;;;22.00;51.60;;;;;;4952070;28;20212;-71
2023/03/18 15:40:51;;;;;;;4.88;1.38;;;22.00;52.60;;;;;;4963779;28;20286;-73
2023/03/18 15:43:26;;;;;;;3.95;1.10;;;22.10;54.30;;;;;;4964127;28;20031;-71
2023/03/18 15:45:54;;;;;;;2.80;1.30;;;22.10;55.30;;;;;;4964422;28;20023;-73
2023/03/18 15:48:29;;;;;;;5.00;1.20;;;22.50;55.20;;;;;;4963756;28;20099;-74
2023/03/18 15:51:01;;;;;;;4.47;1.60;;;23.80;54.20;;;;;;4964334;28;20216;-74
2023/03/18 15:53:41;;;;;;;3.97;1.30;;;25.20;52.20;;;;;;4964982;28;20042;-73
2023/03/18 15:56:15;;;;;;;4.63;1.27;;;25.30;51.90;;;;;;4962420;28;20202;-74
2023/03/18 15:58:43;;;;;;;5.28;1.75;;;25.50;51.30;;;;;;4964929;28;20102;-73
2023/03/18 16:01:11;;;;;;;;;;;25.00;52.10;;;;;;4964721;28;20035;-73
2023/03/18 16:03:41;;;;;;;3.85;1.08;;;25.00;51.60;;;;;;4964446;28;19973;-73
2023/03/18 16:06:09;;;;;;;3.95;1.50;;;25.20;51.60;;;;;;4970160;28;20035;-74
2023/03/18 16:08:35;;;;;;;4.75;1.35;;;25.20;51.70;;;;;;4959169;28;20046;-74
2023/03/18 16:11:02;;;;;;;3.75;1.10;;;25.60;51.40;;;;;;4944402;29;20035;-74
2023/03/18 16:13:35;;;;;;;3.58;1.55;;;25.60;52.20;;;;;;4945209;29;20087;-73
2023/03/18 16:16:01;;;;;;;5.30;1.50;;;25.00;52.10;;;;;;4944219;29;20099;-74
2023/03/18 16:18:27;;;;;;;4.43;1.45;;;24.30;52.90;;;;;;4945387;29;20039;-73
2023/03/18 16:20:53;;;;;;;3.15;1.30;;;23.70;53.80;;;;;;4949064;29;20034;-72
2023/03/18 16:23:23;;;;;;;4.78;1.75;;;23.50;55.00;;;;;;4963635;28;20090;-74
2023/03/18 16:25:53;;;;;;;5.47;1.52;;;23.50;54.70;;;;;;4963741;28;20344;-74
2023/03/18 16:28:28;;;;;;;3.78;1.33;;;23.60;54.40;;;;;;4962575;28;20057;-74
2023/03/18 16:30:56;;;;;;;3.47;1.23;;;23.80;53.90;;;;;;4973626;28;20106;-72
2023/03/18 16:33:23;;;;;;;3.55;1.30;;;23.60;54.00;;;;;;4944390;29;20032;-73
2023/03/18 16:35:57;;;;;;;3.15;1.20;;;23.00;54.50;;;;;;4949746;28;20066;-74
2023/03/18 16:38:24;;;;;;;3.22;1.08;;;22.30;55.80;;;;;;4963444;28;20317;-72
2023/03/18 16:40:50;;;;;;;3.40;1.00;;;21.70;57.00;;;;;;4963824;28;20034;-72
2023/03/18 16:43:22;;;;;;;3.17;1.33;;;21.20;57.80;;;;;;4963352;28;20042;-73
2023/03/18 16:45:49;;;;;;;4.65;1.45;;;20.90;59.40;;;;;;4963863;28;20034;-73
2023/03/18 16:48:20;;;;;;;4.38;1.45;;;20.60;58.80;;;;;;4963283;28;20046;-73
2023/03/18 16:50:48;;;;;;;4.50;1.40;;;20.30;59.70;;;;;;4964054;28;20051;-72
2023/03/18 16:53:27;;;;;;;3.70;1.23;;;20.00;61.00;;;;;;4963489;28;20035;-72
2023/03/18 16:56:00;;;;;;;4.03;1.60;;;19.70;60.80;;;;;;4963704;28;20123;-72
2023/03/18 16:58:31;;;;;;;3.15;1.20;;;19.50;61.50;;;;;;4963453;28;20050;-73
2023/03/18 17:00:58;;;;;;;3.58;1.35;;;19.30;61.50;;;;;;4964092;28;20229;-74
2023/03/18 17:03:25;;;;;;;5.28;1.63;;;19.10;61.70;;;;;;4963036;28;20055;-74
2023/03/18 17:05:51;;;;;;;4.70;2.20;;;19.00;62.10;;;;;;4962383;28;20229;-73
2023/03/18 17:08:19;;;;;;;7.45;2.70;;;18.80;62.60;;;;;;4963442;28;20110;-73
2023/03/18 17:10:47;;;;;;;6.07;2.50;;;18.60;63.10;;;;;;4963305;28;20360;-73
2023/03/18 17:13:19;;;;;;;7.18;2.08;;;18.50;64.20;;;;;;4962206;28;20039;-73
2023/03/18 17:15:45;;;;;;;5.25;1.85;;;18.30;64.40;;;;;;4963646;28;20090;-74
2023/03/18 17:18:16;;;;;;;4.25;1.35;;;18.10;64.40;;;;;;4963158;28;20238;-71
2023/03/18 17:20:43;;;;;;;3.25;1.35;;;17.90;65.70;;;;;;4960423;28;20317;-76
2023/03/18 17:23:15;;;;;;;3.63;1.60;;;17.90;65.20;;;;;;4952608;28;20237;-72
2023/03/18 17:25:46;;;;;;;5.40;1.63;;;17.70;65.90;;;;;;4963722;28;20050;-73
2023/03/18 17:28:21;;;;;;;4.63;1.52;;;17.60;66.40;;;;;;4963022;28;20313;-74
2023/03/18 17:30:47;;;;;;;6.88;1.63;;;17.50;68.00;;;;;;4963445;28;20127;-71
2023/03/18 17:33:23;;;;;;;5.63;1.52;;;17.40;66.70;;;;;;4961589;28;20095;-73
2023/03/18 17:35:53;;;;;;;4.55;1.70;;;17.30;67.00;;;;;;4963402;28;20046;-71
2023/03/18 17:38:22;;;;;;;4.90;1.63;;;17.10;67.60;;;;;;4963041;28;20090;-73
2023/03/18 17:40:48;;;;;;;2.58;1.58;;;17.10;69.50;;;;;;4963232;28;20046;-71
2023/03/18 17:43:32;;;;;;;4.80;1.90;;;17.00;69.70;;;;;;4962727;28;20198;-73
2023/03/18 17:46:00;;;;;;;5.32;2.70;;;17.00;69.10;;;;;;4963245;28;20035;-73
2023/03/18 17:48:31;;;;;;;6.13;2.25;;;16.90;69.20;;;;;;4973245;28;20294;-74
2023/03/18 17:50:59;;;;;;;6.60;3.22;;;16.80;68.40;;;;;;4963621;28;20031;-74
2023/03/18 17:53:49;;;;;;;8.38;3.72;;;16.70;71.00;;;;;;4963100;28;20215;-71
2023/03/18 17:56:17;;;;;;;7.13;3.03;;;16.70;69.30;;;;;;4943846;28;20078;-73
2023/03/18 17:58:50;;;;;;;6.57;2.40;;;16.50;69.80;;;;;;4963095;28;20058;-72
2023/03/18 18:01:20;;;;;;;8.48;2.10;;;16.40;69.70;;;;;;4961394;28;20039;-74
2023/03/18 18:03:46;;;;;;;4.10;1.85;;;16.30;70.00;;;;;;4960022;28;20074;-73
2023/03/18 18:06:18;;;;;;;5.50;1.92;;;16.20;71.20;;;;;;4965919;28;20301;-74
2023/03/18 18:08:43;;;;;;;4.95;1.80;;;16.20;72.20;;;;;;4966546;28;20031;-72
2023/03/18 18:11:21;;;;;;;3.38;1.60;;;16.20;70.70;;;;;;4977362;28;20301;-71
2023/03/18 18:13:52;;;;;;;3.80;1.83;;;16.10;71.60;;;;;;4946257;29;20368;-73
2023/03/18 18:16:18;;;;;;;5.60;2.00;;;16.10;72.20;;;;;;4946863;29;20039;-74
2023/03/18 18:18:44;;;;;;;6.05;2.22;;;16.00;71.60;;;;;;4947664;29;20090;-72
2023/03/18 18:21:20;;;;;;;7.03;3.08;;;16.10;72.10;;;;;;4962545;28;20038;-71
2023/03/18 18:23:46;;;;;;;6.18;2.58;;;16.00;73.40;;;;;;4966225;28;20027;-72